CPA501 RJAA-VHHH
Flight info
| Callsign | CPA501 |
|---|---|
| Flight time | N/A |
| Altitude | 41000 |
| Route | PIGOK Y50 IGMON A1 ELATO V522 ABBEY |
| Aircraft | A333/H-SDE3GHIJ2J3J5M1RVWXY/LB2D1 |
Departure
| Time | 2026-05-05 03:43 |
|---|---|
| Airport | Narita International Airport (RJAA) |
Arrival
| Time | N/A |
|---|---|
| Airport | Hong Kong International Airport (VHHH) |
| Time | Latitude | Longitude | Altitude | Speed | Heading |
|---|---|---|---|---|---|
| 2026-05-05 03:37 | 35.77217 | 140.37503 | 149 ft | 0 kts | 58° |
| 2026-05-05 03:39 | 35.77210 | 140.37489 | 149 ft | 3 kts | 58° |
| 2026-05-05 03:40 | 35.77200 | 140.37469 | 149 ft | 3 kts | 58° |
| 2026-05-05 03:40 | 35.77190 | 140.37449 | 149 ft | 3 kts | 45° |
| 2026-05-05 03:40 | 35.77174 | 140.37437 | 149 ft | 3 kts | 359° |
| 2026-05-05 03:40 | 35.77165 | 140.37436 | 149 ft | 1 kts | 332° |
| 2026-05-05 03:41 | 35.77175 | 140.37430 | 149 ft | 0 kts | 332° |
| 2026-05-05 03:41 | 35.77186 | 140.37397 | 148 ft | 13 kts | 284° |
| 2026-05-05 03:42 | 35.77124 | 140.37278 | 145 ft | 26 kts | 215° |
| 2026-05-05 03:42 | 35.76928 | 140.37239 | 140 ft | 30 kts | 173° |
| 2026-05-05 03:42 | 35.76739 | 140.37340 | 142 ft | 31 kts | 149° |
| 2026-05-05 03:42 | 35.76397 | 140.37587 | 143 ft | 98 kts | 149° |
| 2026-05-05 03:43 | 35.75544 | 140.38206 | 208 ft | 179 kts | 148° |
| 2026-05-05 03:43 | 35.74369 | 140.39079 | 1134 ft | 212 kts | 148° |
| 2026-05-05 03:43 | 35.73000 | 140.40046 | 2368 ft | 244 kts | 154° |
| 2026-05-05 03:43 | 35.71267 | 140.40551 | 3556 ft | 265 kts | 181° |
| 2026-05-05 03:44 | 35.69542 | 140.39893 | 5153 ft | 267 kts | 212° |
| 2026-05-05 03:44 | 35.68104 | 140.38436 | 6659 ft | 268 kts | 229° |
| 2026-05-05 03:44 | 35.66932 | 140.36637 | 8079 ft | 269 kts | 237° |
| 2026-05-05 03:44 | 35.65899 | 140.34684 | 9386 ft | 275 kts | 242° |
| 2026-05-05 03:45 | 35.64894 | 140.32639 | 10556 ft | 284 kts | 243° |
| 2026-05-05 03:45 | 35.63833 | 140.30489 | 11154 ft | 312 kts | 242° |
| 2026-05-05 03:45 | 35.62617 | 140.28118 | 11576 ft | 343 kts | 241° |
| 2026-05-05 03:45 | 35.61245 | 140.25574 | 12181 ft | 366 kts | 240° |
| 2026-05-05 03:46 | 35.59776 | 140.22957 | 13188 ft | 375 kts | 239° |
| 2026-05-05 03:46 | 35.58260 | 140.20313 | 14289 ft | 380 kts | 239° |
| 2026-05-05 03:46 | 35.56716 | 140.17642 | 15299 ft | 384 kts | 239° |
| 2026-05-05 03:46 | 35.55183 | 140.14990 | 16305 ft | 387 kts | 239° |
| 2026-05-05 03:47 | 35.53620 | 140.12281 | 17317 ft | 389 kts | 239° |
| 2026-05-05 03:47 | 35.52048 | 140.09548 | 18288 ft | 392 kts | 239° |
| 2026-05-05 03:47 | 35.50474 | 140.06805 | 19115 ft | 394 kts | 239° |
| 2026-05-05 03:47 | 35.48894 | 140.04049 | 19947 ft | 395 kts | 239° |
| 2026-05-05 03:48 | 35.47326 | 140.01314 | 20762 ft | 396 kts | 239° |
| 2026-05-05 03:48 | 35.45733 | 139.98539 | 21563 ft | 397 kts | 239° |
| 2026-05-05 03:48 | 35.44140 | 139.95762 | 22322 ft | 398 kts | 239° |
| 2026-05-05 03:48 | 35.42536 | 139.92969 | 23006 ft | 401 kts | 239° |
| 2026-05-05 03:49 | 35.40944 | 139.90199 | 23709 ft | 403 kts | 239° |
| 2026-05-05 03:49 | 35.39319 | 139.87375 | 24341 ft | 403 kts | 239° |
| 2026-05-05 03:49 | 35.38586 | 139.86103 | 24675 ft | 402 kts | 239° |
| 2026-05-05 03:49 | 35.37579 | 139.84358 | 25162 ft | 400 kts | 239° |
| 2026-05-05 03:50 | 35.35981 | 139.81591 | 25975 ft | 395 kts | 239° |
| 2026-05-05 03:50 | 35.34405 | 139.78863 | 26796 ft | 390 kts | 239° |
| 2026-05-05 03:50 | 35.32846 | 139.76167 | 27551 ft | 386 kts | 239° |
| 2026-05-05 03:50 | 35.31295 | 139.73484 | 28251 ft | 384 kts | 239° |
| 2026-05-05 03:51 | 35.29258 | 139.69960 | 29163 ft | 381 kts | 239° |
| 2026-05-05 03:51 | 35.28223 | 139.68170 | 29601 ft | 379 kts | 239° |
| 2026-05-05 03:51 | 35.26715 | 139.65564 | 30192 ft | 378 kts | 239° |
| 2026-05-05 03:51 | 35.25191 | 139.62932 | 30711 ft | 376 kts | 239° |
| 2026-05-05 03:52 | 35.23676 | 139.60320 | 31206 ft | 375 kts | 239° |
| 2026-05-05 03:52 | 35.22184 | 139.57749 | 31696 ft | 373 kts | 238° |
| 2026-05-05 03:52 | 35.20750 | 139.55113 | 32181 ft | 370 kts | 242° |
| 2026-05-05 03:52 | 35.19541 | 139.52337 | 32630 ft | 367 kts | 246° |
| 2026-05-05 03:53 | 35.18606 | 139.49441 | 33079 ft | 366 kts | 251° |
| 2026-05-05 03:53 | 35.17966 | 139.46426 | 33503 ft | 367 kts | 257° |
| 2026-05-05 03:53 | 35.17623 | 139.43313 | 33807 ft | 371 kts | 261° |
| 2026-05-05 03:53 | 35.17421 | 139.40161 | 34155 ft | 372 kts | 262° |
| 2026-05-05 03:54 | 35.17274 | 139.37031 | 34497 ft | 372 kts | 262° |
| 2026-05-05 03:54 | 35.17148 | 139.33860 | 34794 ft | 373 kts | 263° |
| 2026-05-05 03:54 | 35.17025 | 139.30722 | 35066 ft | 374 kts | 263° |
| 2026-05-05 03:54 | 35.16896 | 139.27548 | 35349 ft | 374 kts | 263° |
| 2026-05-05 03:55 | 35.16758 | 139.24365 | 35644 ft | 375 kts | 262° |
| 2026-05-05 03:55 | 35.16613 | 139.21164 | 35917 ft | 375 kts | 262° |
| 2026-05-05 03:55 | 35.16465 | 139.18004 | 36188 ft | 376 kts | 262° |
| 2026-05-05 03:55 | 35.16311 | 139.14793 | 36468 ft | 376 kts | 262° |
| 2026-05-05 03:56 | 35.16158 | 139.11630 | 36746 ft | 377 kts | 262° |
| 2026-05-05 03:56 | 35.16001 | 139.08418 | 37043 ft | 377 kts | 262° |
| 2026-05-05 03:56 | 35.15844 | 139.05218 | 37299 ft | 377 kts | 262° |
| 2026-05-05 03:56 | 35.15686 | 139.01999 | 37573 ft | 378 kts | 262° |
| 2026-05-05 03:57 | 35.15528 | 138.98790 | 37829 ft | 379 kts | 262° |
| 2026-05-05 03:57 | 35.15369 | 138.95606 | 38116 ft | 380 kts | 263° |
| 2026-05-05 03:57 | 35.15207 | 138.92353 | 38359 ft | 382 kts | 263° |
| 2026-05-05 03:57 | 35.15045 | 138.89114 | 38650 ft | 382 kts | 263° |
| 2026-05-05 03:58 | 35.14883 | 138.85906 | 38884 ft | 382 kts | 263° |
| 2026-05-05 03:58 | 35.14728 | 138.82844 | 39069 ft | 382 kts | 263° |
| 2026-05-05 03:58 | 35.14562 | 138.79588 | 39302 ft | 382 kts | 263° |
| 2026-05-05 03:58 | 35.14396 | 138.76326 | 39537 ft | 382 kts | 263° |
| 2026-05-05 03:59 | 35.14230 | 138.73082 | 39753 ft | 382 kts | 263° |
| 2026-05-05 03:59 | 35.14062 | 138.69840 | 39960 ft | 382 kts | 263° |
| 2026-05-05 03:59 | 35.13894 | 138.66596 | 40172 ft | 382 kts | 263° |
| 2026-05-05 03:59 | 35.13727 | 138.63390 | 40363 ft | 382 kts | 263° |
| 2026-05-05 04:00 | 35.13556 | 138.60138 | 40556 ft | 382 kts | 262° |
| 2026-05-05 04:00 | 35.13385 | 138.56886 | 40754 ft | 382 kts | 263° |
| 2026-05-05 04:00 | 35.13213 | 138.53641 | 40948 ft | 383 kts | 262° |
| 2026-05-05 04:00 | 35.13041 | 138.50432 | 41152 ft | 383 kts | 263° |
| 2026-05-05 04:01 | 35.12692 | 138.43931 | 41193 ft | 382 kts | 263° |
| 2026-05-05 04:01 | 35.12343 | 138.37496 | 41192 ft | 381 kts | 263° |
| 2026-05-05 04:02 | 35.11989 | 138.31021 | 41179 ft | 382 kts | 263° |
| 2026-05-05 04:02 | 35.11632 | 138.24570 | 41185 ft | 381 kts | 263° |
| 2026-05-05 04:03 | 35.11271 | 138.18102 | 41181 ft | 382 kts | 263° |
| 2026-05-05 04:03 | 35.10905 | 138.11601 | 41181 ft | 383 kts | 263° |
| 2026-05-05 04:04 | 35.10536 | 138.05139 | 41176 ft | 382 kts | 263° |
| 2026-05-05 04:04 | 35.10165 | 137.98676 | 41182 ft | 382 kts | 263° |
| 2026-05-05 04:05 | 35.09787 | 137.92179 | 41213 ft | 383 kts | 263° |
| 2026-05-05 04:05 | 35.09409 | 137.85721 | 41190 ft | 383 kts | 263° |
| 2026-05-05 04:06 | 35.09023 | 137.79202 | 41164 ft | 383 kts | 263° |
| 2026-05-05 04:06 | 35.08637 | 137.72725 | 41185 ft | 383 kts | 263° |
| 2026-05-05 04:07 | 35.08083 | 137.66289 | 41184 ft | 381 kts | 257° |
| 2026-05-05 04:07 | 35.06644 | 137.60076 | 41182 ft | 380 kts | 252° |
| 2026-05-05 04:08 | 35.04928 | 137.54003 | 41179 ft | 380 kts | 251° |
| 2026-05-05 04:08 | 35.03154 | 137.47934 | 41181 ft | 379 kts | 251° |
| 2026-05-05 04:09 | 35.01388 | 137.41845 | 41180 ft | 380 kts | 251° |
| 2026-05-05 04:09 | 34.99651 | 137.35784 | 41177 ft | 380 kts | 251° |
| 2026-05-05 04:10 | 34.97904 | 137.29674 | 41177 ft | 381 kts | 251° |
| 2026-05-05 04:10 | 34.96166 | 137.23609 | 41177 ft | 381 kts | 251° |
| 2026-05-05 04:11 | 34.94416 | 137.17520 | 41176 ft | 381 kts | 251° |
| 2026-05-05 04:11 | 34.92659 | 137.11423 | 41173 ft | 381 kts | 251° |
| 2026-05-05 04:12 | 34.90897 | 137.05322 | 41201 ft | 381 kts | 251° |
| 2026-05-05 04:12 | 34.89133 | 136.99228 | 41176 ft | 381 kts | 251° |
| 2026-05-05 04:13 | 34.87376 | 136.93170 | 41176 ft | 382 kts | 251° |
| 2026-05-05 04:13 | 34.85492 | 136.87121 | 41186 ft | 382 kts | 248° |
| 2026-05-05 04:14 | 34.83293 | 136.81215 | 41181 ft | 382 kts | 246° |
| 2026-05-05 04:14 | 34.81047 | 136.75381 | 41181 ft | 382 kts | 246° |
| 2026-05-05 04:15 | 34.78773 | 136.69514 | 41186 ft | 383 kts | 246° |
| 2026-05-05 04:15 | 34.76504 | 136.63655 | 41182 ft | 383 kts | 246° |
| 2026-05-05 04:16 | 34.74251 | 136.57836 | 41181 ft | 383 kts | 246° |
| 2026-05-05 04:16 | 34.71975 | 136.51962 | 41175 ft | 383 kts | 246° |
| 2026-05-05 04:17 | 34.69707 | 136.46123 | 41176 ft | 383 kts | 246° |
| 2026-05-05 04:17 | 34.67431 | 136.40270 | 41176 ft | 383 kts | 246° |
| 2026-05-05 04:18 | 34.65161 | 136.34446 | 41178 ft | 383 kts | 246° |
| 2026-05-05 04:18 | 34.62875 | 136.28590 | 41171 ft | 383 kts | 246° |
| 2026-05-05 04:19 | 34.60581 | 136.22724 | 41161 ft | 384 kts | 246° |
| 2026-05-05 04:19 | 34.58272 | 136.16902 | 41173 ft | 384 kts | 245° |
| 2026-05-05 04:20 | 34.55844 | 136.11165 | 41153 ft | 384 kts | 244° |
| 2026-05-05 04:20 | 34.53350 | 136.05404 | 41170 ft | 384 kts | 244° |
| 2026-05-05 04:21 | 34.50884 | 135.99695 | 41171 ft | 384 kts | 244° |
| 2026-05-05 04:21 | 34.48405 | 135.93940 | 41167 ft | 384 kts | 244° |
| 2026-05-05 04:22 | 34.45943 | 135.88221 | 41163 ft | 384 kts | 244° |
| 2026-05-05 04:22 | 34.43464 | 135.82474 | 41165 ft | 384 kts | 244° |
| 2026-05-05 04:23 | 34.40998 | 135.76764 | 41152 ft | 384 kts | 244° |
| 2026-05-05 04:23 | 34.38531 | 135.71062 | 41166 ft | 384 kts | 244° |
| 2026-05-05 04:24 | 34.36041 | 135.65322 | 41169 ft | 384 kts | 244° |
| 2026-05-05 04:25 | 34.32324 | 135.56766 | 41169 ft | 384 kts | 244° |
| 2026-05-05 04:25 | 34.29845 | 135.51071 | 41178 ft | 384 kts | 244° |
| 2026-05-05 04:26 | 34.27345 | 135.45338 | 41177 ft | 384 kts | 244° |
| 2026-05-05 04:26 | 34.24847 | 135.39620 | 41180 ft | 384 kts | 244° |
| 2026-05-05 04:27 | 34.22360 | 135.33934 | 41182 ft | 384 kts | 244° |
| 2026-05-05 04:27 | 34.19852 | 135.28212 | 41187 ft | 384 kts | 244° |
| 2026-05-05 04:28 | 34.17360 | 135.22536 | 41187 ft | 384 kts | 244° |
| 2026-05-05 04:28 | 34.14847 | 135.16821 | 41188 ft | 384 kts | 244° |
| 2026-05-05 04:29 | 34.12350 | 135.11152 | 41192 ft | 384 kts | 244° |
| 2026-05-05 04:29 | 34.09827 | 135.05434 | 41195 ft | 384 kts | 244° |
| 2026-05-05 04:30 | 34.07320 | 134.99759 | 41214 ft | 384 kts | 244° |
| 2026-05-05 04:30 | 34.04793 | 134.94050 | 41204 ft | 385 kts | 244° |
| 2026-05-05 04:31 | 34.02277 | 134.88374 | 41185 ft | 386 kts | 244° |
| 2026-05-05 04:31 | 33.99745 | 134.82674 | 41204 ft | 385 kts | 244° |
| 2026-05-05 04:32 | 33.97230 | 134.77019 | 41203 ft | 384 kts | 244° |
| 2026-05-05 04:32 | 33.94697 | 134.71333 | 41203 ft | 384 kts | 244° |
| 2026-05-05 04:33 | 33.92176 | 134.65682 | 41201 ft | 384 kts | 244° |
| 2026-05-05 04:33 | 33.89639 | 134.60006 | 41211 ft | 383 kts | 244° |
| 2026-05-05 04:34 | 33.87109 | 134.54354 | 41199 ft | 384 kts | 244° |
| 2026-05-05 04:34 | 33.84582 | 134.48717 | 41197 ft | 384 kts | 244° |
| 2026-05-05 04:35 | 33.82038 | 134.43054 | 41195 ft | 384 kts | 244° |
| 2026-05-05 04:35 | 33.79509 | 134.37431 | 41191 ft | 385 kts | 244° |
| 2026-05-05 04:36 | 33.76952 | 134.31756 | 41194 ft | 385 kts | 244° |
| 2026-05-05 04:36 | 33.74407 | 134.26116 | 41175 ft | 385 kts | 244° |
| 2026-05-05 04:37 | 33.71841 | 134.20440 | 41192 ft | 385 kts | 244° |
| 2026-05-05 04:37 | 33.69297 | 134.14820 | 41190 ft | 385 kts | 244° |
| 2026-05-05 04:38 | 33.67166 | 134.10121 | 41189 ft | 385 kts | 244° |
| 2026-05-05 04:38 | 33.64599 | 134.04468 | 41174 ft | 385 kts | 244° |
| 2026-05-05 04:39 | 33.62028 | 133.98815 | 41186 ft | 384 kts | 244° |
| 2026-05-05 04:39 | 33.59478 | 133.93214 | 41188 ft | 386 kts | 244° |
| 2026-05-05 04:40 | 33.56894 | 133.87550 | 41178 ft | 385 kts | 244° |
| 2026-05-05 04:40 | 33.54325 | 133.81935 | 41199 ft | 385 kts | 244° |
| 2026-05-05 04:41 | 33.51750 | 133.76307 | 41196 ft | 384 kts | 244° |
| 2026-05-05 04:41 | 33.49183 | 133.70704 | 41185 ft | 385 kts | 244° |
| 2026-05-05 04:42 | 33.46596 | 133.65069 | 41182 ft | 385 kts | 243° |
| 2026-05-05 04:42 | 33.44023 | 133.59474 | 41192 ft | 385 kts | 243° |
| 2026-05-05 04:43 | 33.41437 | 133.53858 | 41193 ft | 385 kts | 243° |
| 2026-05-05 04:43 | 33.38858 | 133.48267 | 41184 ft | 385 kts | 243° |
| 2026-05-05 04:44 | 33.36262 | 133.42649 | 41163 ft | 385 kts | 243° |
| 2026-05-05 04:44 | 33.33677 | 133.37062 | 41197 ft | 385 kts | 243° |
| 2026-05-05 04:45 | 33.31072 | 133.31442 | 41197 ft | 385 kts | 243° |
| 2026-05-05 04:45 | 33.28485 | 133.25869 | 41195 ft | 385 kts | 243° |
| 2026-05-05 04:46 | 33.25849 | 133.20280 | 41184 ft | 386 kts | 241° |
| 2026-05-05 04:46 | 33.22849 | 133.14927 | 41195 ft | 388 kts | 239° |
| 2026-05-05 04:47 | 33.19780 | 133.09673 | 41193 ft | 387 kts | 238° |
| 2026-05-05 04:47 | 33.16670 | 133.04398 | 41193 ft | 387 kts | 238° |
| 2026-05-05 04:48 | 33.13565 | 132.99132 | 41188 ft | 388 kts | 238° |
| 2026-05-05 04:48 | 33.10477 | 132.93889 | 41201 ft | 388 kts | 238° |
| 2026-05-05 04:49 | 33.07365 | 132.88610 | 41192 ft | 388 kts | 238° |
| 2026-05-05 04:49 | 33.04270 | 132.83369 | 41197 ft | 388 kts | 238° |
| 2026-05-05 04:50 | 33.01154 | 132.78097 | 41197 ft | 389 kts | 238° |
| 2026-05-05 04:50 | 32.98033 | 132.72825 | 41197 ft | 388 kts | 238° |
| 2026-05-05 04:51 | 32.94911 | 132.67558 | 41196 ft | 388 kts | 238° |
| 2026-05-05 04:51 | 32.91806 | 132.62328 | 41178 ft | 388 kts | 238° |
| 2026-05-05 04:52 | 32.88681 | 132.57069 | 41193 ft | 388 kts | 238° |
| 2026-05-05 04:52 | 32.85574 | 132.51848 | 41192 ft | 388 kts | 238° |
| 2026-05-05 04:53 | 32.82456 | 132.46616 | 41192 ft | 388 kts | 238° |
| 2026-05-05 04:53 | 32.79321 | 132.41363 | 41192 ft | 388 kts | 238° |
| 2026-05-05 04:54 | 32.76190 | 132.36124 | 41192 ft | 389 kts | 238° |
| 2026-05-05 04:54 | 32.73064 | 132.30901 | 41192 ft | 389 kts | 238° |
| 2026-05-05 04:55 | 32.69923 | 132.25662 | 41193 ft | 389 kts | 238° |
| 2026-05-05 04:55 | 32.66797 | 132.20454 | 41183 ft | 389 kts | 238° |
| 2026-05-05 04:56 | 32.63687 | 132.15222 | 41193 ft | 389 kts | 239° |
| 2026-05-05 04:56 | 32.60592 | 132.09939 | 41192 ft | 389 kts | 239° |
| 2026-05-05 04:57 | 32.57508 | 132.04675 | 41192 ft | 389 kts | 239° |
| 2026-05-05 04:57 | 32.54410 | 131.99405 | 41189 ft | 389 kts | 239° |
| 2026-05-05 04:58 | 32.51325 | 131.94172 | 41188 ft | 389 kts | 238° |
| 2026-05-05 04:58 | 32.48212 | 131.88899 | 41190 ft | 389 kts | 238° |
| 2026-05-05 04:59 | 32.45119 | 131.83667 | 41187 ft | 389 kts | 238° |
| 2026-05-05 04:59 | 32.42009 | 131.78414 | 41187 ft | 389 kts | 238° |
| 2026-05-05 05:00 | 32.38893 | 131.73156 | 41188 ft | 389 kts | 238° |
| 2026-05-05 05:00 | 32.35786 | 131.67923 | 41184 ft | 389 kts | 238° |
| 2026-05-05 05:01 | 32.32662 | 131.62667 | 41146 ft | 389 kts | 238° |
| 2026-05-05 05:01 | 32.29553 | 131.57444 | 41182 ft | 390 kts | 238° |
| 2026-05-05 05:02 | 32.26426 | 131.52198 | 41179 ft | 390 kts | 239° |
| 2026-05-05 05:02 | 32.23311 | 131.46981 | 41177 ft | 390 kts | 239° |
| 2026-05-05 05:03 | 32.20169 | 131.41723 | 41164 ft | 391 kts | 238° |
| 2026-05-05 05:03 | 32.17052 | 131.36514 | 41207 ft | 391 kts | 238° |
| 2026-05-05 05:04 | 32.13896 | 131.31249 | 41177 ft | 391 kts | 238° |
| 2026-05-05 05:04 | 32.10771 | 131.26036 | 41180 ft | 390 kts | 238° |
| 2026-05-05 05:05 | 32.07624 | 131.20799 | 41157 ft | 390 kts | 238° |
| 2026-05-05 05:05 | 32.04488 | 131.15589 | 41174 ft | 391 kts | 238° |
| 2026-05-05 05:06 | 32.01345 | 131.10373 | 41176 ft | 391 kts | 238° |
| 2026-05-05 05:06 | 31.98192 | 131.05151 | 41174 ft | 391 kts | 238° |
| 2026-05-05 05:07 | 31.95025 | 130.99915 | 41158 ft | 391 kts | 238° |
| 2026-05-05 05:07 | 31.91869 | 130.94701 | 41168 ft | 392 kts | 238° |
| 2026-05-05 05:08 | 31.88704 | 130.89478 | 41177 ft | 391 kts | 238° |
| 2026-05-05 05:08 | 31.85555 | 130.84288 | 41174 ft | 392 kts | 238° |
| 2026-05-05 05:09 | 31.82379 | 130.79059 | 41140 ft | 392 kts | 238° |
| 2026-05-05 05:09 | 31.79216 | 130.73862 | 41155 ft | 392 kts | 238° |
| 2026-05-05 05:10 | 31.76028 | 130.68630 | 41151 ft | 392 kts | 238° |
| 2026-05-05 05:10 | 31.72863 | 130.63442 | 41159 ft | 393 kts | 238° |
| 2026-05-05 05:11 | 31.69664 | 130.58225 | 41127 ft | 393 kts | 237° |
| 2026-05-05 05:11 | 31.66368 | 130.53116 | 41158 ft | 394 kts | 237° |
| 2026-05-05 05:12 | 31.62998 | 130.48022 | 41162 ft | 394 kts | 236° |
| 2026-05-05 05:12 | 31.59644 | 130.42957 | 41164 ft | 394 kts | 236° |
| 2026-05-05 05:13 | 31.56279 | 130.37860 | 41161 ft | 394 kts | 236° |
| 2026-05-05 05:13 | 31.52940 | 130.32798 | 41160 ft | 394 kts | 236° |
| 2026-05-05 05:14 | 31.49581 | 130.27713 | 41159 ft | 394 kts | 236° |
| 2026-05-05 05:14 | 31.46232 | 130.22648 | 41165 ft | 394 kts | 236° |
| 2026-05-05 05:15 | 31.42867 | 130.17568 | 41132 ft | 394 kts | 236° |
| 2026-05-05 05:15 | 31.39484 | 130.12466 | 41160 ft | 396 kts | 236° |
| 2026-05-05 05:16 | 31.36125 | 130.07408 | 41160 ft | 395 kts | 236° |
| 2026-05-05 05:16 | 31.32751 | 130.02336 | 41178 ft | 395 kts | 236° |
| 2026-05-05 05:17 | 31.29374 | 129.97264 | 41122 ft | 395 kts | 236° |
| 2026-05-05 05:17 | 31.25991 | 129.92190 | 41152 ft | 395 kts | 236° |
| 2026-05-05 05:18 | 31.22631 | 129.87156 | 41157 ft | 395 kts | 236° |
| 2026-05-05 05:18 | 31.19245 | 129.82090 | 41155 ft | 395 kts | 236° |
| 2026-05-05 05:19 | 31.15874 | 129.77055 | 41140 ft | 395 kts | 236° |
| 2026-05-05 05:19 | 31.12476 | 129.71984 | 41155 ft | 395 kts | 236° |
| 2026-05-05 05:20 | 31.09100 | 129.66953 | 41156 ft | 395 kts | 236° |
| 2026-05-05 05:20 | 31.05703 | 129.61897 | 41155 ft | 395 kts | 236° |
| 2026-05-05 05:21 | 31.02322 | 129.56872 | 41168 ft | 395 kts | 236° |
| 2026-05-05 05:21 | 30.98934 | 129.51844 | 41151 ft | 395 kts | 236° |
| 2026-05-05 05:22 | 30.95520 | 129.46782 | 41151 ft | 396 kts | 236° |
| 2026-05-05 05:22 | 30.92129 | 129.41761 | 41150 ft | 396 kts | 236° |
| 2026-05-05 05:23 | 30.88716 | 129.36714 | 41169 ft | 396 kts | 236° |
| 2026-05-05 05:23 | 30.85319 | 129.31698 | 41157 ft | 396 kts | 236° |
| 2026-05-05 05:24 | 30.81895 | 129.26648 | 41153 ft | 396 kts | 236° |
| 2026-05-05 05:24 | 30.78493 | 129.21636 | 41161 ft | 396 kts | 236° |
| 2026-05-05 05:25 | 30.75110 | 129.16570 | 41155 ft | 396 kts | 237° |
| 2026-05-05 05:25 | 30.72332 | 129.12333 | 41134 ft | 396 kts | 237° |
| 2026-05-05 05:26 | 30.68451 | 129.06404 | 41153 ft | 396 kts | 237° |
| 2026-05-05 05:26 | 30.65092 | 129.01292 | 41156 ft | 396 kts | 237° |
| 2026-05-05 05:27 | 30.61757 | 128.96231 | 41152 ft | 396 kts | 237° |
| 2026-05-05 05:27 | 30.57280 | 128.89449 | 41149 ft | 397 kts | 237° |
| 2026-05-05 05:28 | 30.53934 | 128.84387 | 41152 ft | 397 kts | 237° |
| 2026-05-05 05:28 | 30.50567 | 128.79300 | 41151 ft | 397 kts | 237° |
| 2026-05-05 05:29 | 30.47217 | 128.74246 | 41148 ft | 397 kts | 237° |
| 2026-05-05 05:29 | 30.43841 | 128.69158 | 41133 ft | 397 kts | 237° |
| 2026-05-05 05:30 | 30.40486 | 128.64107 | 41155 ft | 398 kts | 236° |
| 2026-05-05 05:30 | 30.37097 | 128.59014 | 41145 ft | 397 kts | 236° |
| 2026-05-05 05:31 | 30.33740 | 128.53974 | 41143 ft | 397 kts | 236° |
| 2026-05-05 05:31 | 30.30357 | 128.48901 | 41129 ft | 397 kts | 236° |
| 2026-05-05 05:32 | 30.26975 | 128.43837 | 41141 ft | 398 kts | 236° |
| 2026-05-05 05:32 | 30.23578 | 128.38756 | 41140 ft | 398 kts | 236° |
| 2026-05-05 05:33 | 30.20175 | 128.33673 | 41140 ft | 399 kts | 236° |
| 2026-05-05 05:33 | 30.16789 | 128.28623 | 41138 ft | 399 kts | 236° |
| 2026-05-05 05:34 | 30.13387 | 128.23553 | 41138 ft | 399 kts | 236° |
| 2026-05-05 05:34 | 30.09983 | 128.18489 | 41156 ft | 399 kts | 236° |
| 2026-05-05 05:35 | 30.06599 | 128.13460 | 41135 ft | 398 kts | 236° |
| 2026-05-05 05:35 | 30.03192 | 128.08402 | 41132 ft | 398 kts | 236° |
| 2026-05-05 05:36 | 29.99797 | 128.03369 | 41113 ft | 398 kts | 236° |
| 2026-05-05 05:36 | 29.96408 | 127.98350 | 41133 ft | 399 kts | 236° |
| 2026-05-05 05:37 | 29.92988 | 127.93293 | 41134 ft | 399 kts | 236° |
| 2026-05-05 05:37 | 29.89567 | 127.88241 | 41129 ft | 399 kts | 236° |
| 2026-05-05 05:38 | 29.86153 | 127.83241 | 41129 ft | 399 kts | 235° |
| 2026-05-05 05:38 | 29.82566 | 127.78331 | 41131 ft | 401 kts | 234° |
| 2026-05-05 05:39 | 29.78928 | 127.73493 | 41128 ft | 401 kts | 234° |
| 2026-05-05 05:39 | 29.75278 | 127.68633 | 41131 ft | 401 kts | 234° |
| 2026-05-05 05:40 | 29.71654 | 127.63789 | 41129 ft | 400 kts | 234° |
| 2026-05-05 05:40 | 29.68012 | 127.58914 | 41123 ft | 401 kts | 234° |
| 2026-05-05 05:41 | 29.64392 | 127.54073 | 41123 ft | 401 kts | 234° |
| 2026-05-05 05:41 | 29.60741 | 127.49197 | 41134 ft | 401 kts | 234° |
| 2026-05-05 05:42 | 29.57162 | 127.44313 | 41132 ft | 400 kts | 235° |
| 2026-05-05 05:42 | 29.53693 | 127.39297 | 41098 ft | 399 kts | 236° |
| 2026-05-05 05:43 | 29.50270 | 127.34292 | 41126 ft | 400 kts | 236° |
| 2026-05-05 05:43 | 29.46814 | 127.29268 | 41128 ft | 400 kts | 236° |
| 2026-05-05 05:44 | 29.43344 | 127.24254 | 41126 ft | 400 kts | 236° |
| 2026-05-05 05:44 | 29.39876 | 127.19255 | 41126 ft | 400 kts | 236° |
| 2026-05-05 05:45 | 29.36419 | 127.14278 | 41127 ft | 400 kts | 236° |
| 2026-05-05 05:45 | 29.32965 | 127.09310 | 41131 ft | 401 kts | 236° |
| 2026-05-05 05:46 | 29.29473 | 127.04292 | 41126 ft | 401 kts | 236° |
| 2026-05-05 05:46 | 29.26003 | 126.99312 | 41131 ft | 401 kts | 236° |
| 2026-05-05 05:47 | 29.22516 | 126.94315 | 41098 ft | 400 kts | 236° |
| 2026-05-05 05:47 | 29.19050 | 126.89353 | 41123 ft | 401 kts | 236° |
| 2026-05-05 05:48 | 29.15554 | 126.84354 | 41119 ft | 401 kts | 236° |
| 2026-05-05 05:48 | 29.12081 | 126.79394 | 41119 ft | 401 kts | 236° |
| 2026-05-05 05:49 | 29.08578 | 126.74398 | 41146 ft | 401 kts | 236° |
| 2026-05-05 05:49 | 29.05097 | 126.69439 | 41115 ft | 401 kts | 236° |
| 2026-05-05 05:50 | 29.01594 | 126.64454 | 41124 ft | 402 kts | 236° |
| 2026-05-05 05:50 | 28.98100 | 126.59488 | 41121 ft | 402 kts | 236° |
| 2026-05-05 05:51 | 28.94552 | 126.54568 | 41124 ft | 403 kts | 234° |
| 2026-05-05 05:51 | 28.90915 | 126.49670 | 41145 ft | 403 kts | 234° |
| 2026-05-05 05:52 | 28.87276 | 126.44789 | 41119 ft | 403 kts | 234° |
| 2026-05-05 05:52 | 28.83640 | 126.39902 | 41120 ft | 404 kts | 234° |
| 2026-05-05 05:53 | 28.80016 | 126.35027 | 41123 ft | 404 kts | 234° |
| 2026-05-05 05:53 | 28.76381 | 126.30141 | 41123 ft | 404 kts | 234° |
| 2026-05-05 05:54 | 28.72764 | 126.25286 | 41107 ft | 404 kts | 234° |
| 2026-05-05 05:54 | 28.69114 | 126.20392 | 41124 ft | 404 kts | 234° |
| 2026-05-05 05:55 | 28.65460 | 126.15499 | 41118 ft | 405 kts | 234° |
| 2026-05-05 05:55 | 28.61871 | 126.10610 | 41118 ft | 404 kts | 235° |
| 2026-05-05 05:56 | 28.58356 | 126.05646 | 41118 ft | 404 kts | 235° |
| 2026-05-05 05:56 | 28.54837 | 126.00650 | 41121 ft | 404 kts | 235° |
| 2026-05-05 05:57 | 28.51310 | 125.95666 | 41118 ft | 404 kts | 235° |
| 2026-05-05 05:57 | 28.47791 | 125.90713 | 41122 ft | 404 kts | 235° |
| 2026-05-05 05:58 | 28.44250 | 125.85738 | 41118 ft | 404 kts | 235° |
| 2026-05-05 05:58 | 28.40729 | 125.80796 | 41121 ft | 404 kts | 235° |
| 2026-05-05 05:59 | 28.37188 | 125.75832 | 41121 ft | 404 kts | 235° |
| 2026-05-05 05:59 | 28.33659 | 125.70889 | 41121 ft | 404 kts | 235° |
| 2026-05-05 06:00 | 28.30105 | 125.65919 | 41121 ft | 404 kts | 235° |
| 2026-05-05 06:00 | 28.26580 | 125.60995 | 41123 ft | 404 kts | 235° |
| 2026-05-05 06:01 | 28.23025 | 125.56035 | 41083 ft | 404 kts | 235° |
| 2026-05-05 06:01 | 28.19490 | 125.51108 | 41113 ft | 405 kts | 235° |
| 2026-05-05 06:02 | 28.15923 | 125.46140 | 41116 ft | 405 kts | 235° |
| 2026-05-05 06:02 | 28.12359 | 125.41187 | 41115 ft | 405 kts | 235° |
| 2026-05-05 06:03 | 28.08816 | 125.36266 | 41118 ft | 405 kts | 235° |
| 2026-05-05 06:03 | 28.05267 | 125.31342 | 41086 ft | 405 kts | 235° |
| 2026-05-05 06:04 | 28.01695 | 125.26391 | 41118 ft | 406 kts | 235° |
| 2026-05-05 06:04 | 27.98111 | 125.21430 | 41112 ft | 406 kts | 235° |
| 2026-05-05 06:05 | 27.94546 | 125.16502 | 41114 ft | 406 kts | 234° |
| 2026-05-05 06:05 | 27.90962 | 125.11553 | 41113 ft | 406 kts | 234° |
| 2026-05-05 06:06 | 27.87401 | 125.06641 | 41101 ft | 406 kts | 235° |
| 2026-05-05 06:06 | 27.83800 | 125.01681 | 41112 ft | 407 kts | 234° |
| 2026-05-05 06:07 | 27.80222 | 124.96757 | 41108 ft | 407 kts | 234° |
| 2026-05-05 06:07 | 27.76625 | 124.91813 | 41117 ft | 406 kts | 234° |
| 2026-05-05 06:08 | 27.73033 | 124.86882 | 41113 ft | 406 kts | 234° |
| 2026-05-05 06:08 | 27.69460 | 124.81981 | 41096 ft | 407 kts | 234° |
| 2026-05-05 06:09 | 27.65846 | 124.77029 | 41109 ft | 407 kts | 234° |
| 2026-05-05 06:09 | 27.62248 | 124.72108 | 41112 ft | 408 kts | 234° |
| 2026-05-05 06:10 | 27.58640 | 124.67170 | 41105 ft | 407 kts | 234° |
| 2026-05-05 06:10 | 27.55051 | 124.62263 | 41104 ft | 407 kts | 234° |
| 2026-05-05 06:11 | 27.51443 | 124.57334 | 41097 ft | 407 kts | 234° |
| 2026-05-05 06:11 | 27.47848 | 124.52428 | 41104 ft | 408 kts | 234° |
| 2026-05-05 06:12 | 27.44219 | 124.47483 | 41111 ft | 408 kts | 234° |
| 2026-05-05 06:12 | 27.40611 | 124.42573 | 41100 ft | 408 kts | 234° |
| 2026-05-05 06:13 | 27.36984 | 124.37643 | 41102 ft | 408 kts | 234° |
| 2026-05-05 06:13 | 27.33363 | 124.32724 | 41095 ft | 408 kts | 234° |
| 2026-05-05 06:14 | 27.29749 | 124.27822 | 41099 ft | 409 kts | 234° |
| 2026-05-05 06:14 | 27.26114 | 124.22896 | 41094 ft | 409 kts | 234° |
| 2026-05-05 06:15 | 27.23080 | 124.18790 | 41098 ft | 409 kts | 234° |
| 2026-05-05 06:15 | 27.19456 | 124.13890 | 41094 ft | 409 kts | 234° |
| 2026-05-05 06:16 | 27.15213 | 124.08160 | 41091 ft | 410 kts | 234° |
| 2026-05-05 06:16 | 27.12168 | 124.04051 | 41091 ft | 410 kts | 234° |
| 2026-05-05 06:17 | 27.07907 | 123.98322 | 41091 ft | 411 kts | 234° |
| 2026-05-05 06:17 | 27.04839 | 123.94238 | 41101 ft | 411 kts | 234° |
| 2026-05-05 06:18 | 27.01146 | 123.89339 | 41089 ft | 410 kts | 234° |
| 2026-05-05 06:18 | 26.97457 | 123.84449 | 41081 ft | 410 kts | 234° |
| 2026-05-05 06:19 | 26.93779 | 123.79573 | 41087 ft | 411 kts | 234° |
| 2026-05-05 06:19 | 26.90078 | 123.74674 | 41084 ft | 411 kts | 234° |
| 2026-05-05 06:20 | 26.86393 | 123.69799 | 41080 ft | 411 kts | 234° |
| 2026-05-05 06:20 | 26.82684 | 123.64900 | 41079 ft | 412 kts | 234° |
| 2026-05-05 06:21 | 26.78971 | 123.60000 | 41087 ft | 412 kts | 234° |
| 2026-05-05 06:21 | 26.75274 | 123.55126 | 41076 ft | 412 kts | 234° |
| 2026-05-05 06:22 | 26.71559 | 123.50235 | 41078 ft | 412 kts | 234° |
| 2026-05-05 06:22 | 26.67836 | 123.45339 | 41080 ft | 412 kts | 234° |
| 2026-05-05 06:23 | 26.64134 | 123.40475 | 41078 ft | 412 kts | 234° |
| 2026-05-05 06:23 | 26.60413 | 123.35593 | 41062 ft | 412 kts | 233° |
| 2026-05-05 06:24 | 26.56697 | 123.30723 | 41073 ft | 413 kts | 233° |
| 2026-05-05 06:24 | 26.52978 | 123.25854 | 41067 ft | 413 kts | 233° |
| 2026-05-05 06:25 | 26.49235 | 123.20959 | 41068 ft | 413 kts | 233° |
| 2026-05-05 06:25 | 26.45493 | 123.16071 | 41067 ft | 413 kts | 233° |
| 2026-05-05 06:26 | 26.41767 | 123.11209 | 41030 ft | 413 kts | 233° |
| 2026-05-05 06:26 | 26.38033 | 123.06341 | 41062 ft | 415 kts | 233° |
| 2026-05-05 06:27 | 26.32391 | 122.98998 | 41063 ft | 415 kts | 233° |
| 2026-05-05 06:28 | 26.28617 | 122.94094 | 41055 ft | 415 kts | 233° |
| 2026-05-05 06:28 | 26.24876 | 122.89240 | 41055 ft | 415 kts | 233° |
| 2026-05-05 06:29 | 26.21111 | 122.84358 | 41050 ft | 417 kts | 233° |
| 2026-05-05 06:29 | 26.17316 | 122.79442 | 41056 ft | 418 kts | 233° |
| 2026-05-05 06:30 | 26.13533 | 122.74547 | 41054 ft | 418 kts | 233° |
| 2026-05-05 06:30 | 26.09731 | 122.69636 | 41051 ft | 418 kts | 233° |
| 2026-05-05 06:31 | 26.05944 | 122.64749 | 41053 ft | 418 kts | 233° |
| 2026-05-05 06:31 | 26.02140 | 122.59844 | 41045 ft | 418 kts | 233° |
| 2026-05-05 06:32 | 25.98333 | 122.54940 | 41052 ft | 419 kts | 233° |
| 2026-05-05 06:32 | 25.94540 | 122.50060 | 41051 ft | 419 kts | 233° |
| 2026-05-05 06:33 | 25.90728 | 122.45159 | 41045 ft | 418 kts | 233° |
| 2026-05-05 06:33 | 25.86934 | 122.40284 | 41048 ft | 419 kts | 233° |
| 2026-05-05 06:34 | 25.83114 | 122.35381 | 41013 ft | 419 kts | 233° |
| 2026-05-05 06:34 | 25.79287 | 122.30474 | 41051 ft | 420 kts | 233° |
| 2026-05-05 06:35 | 25.75481 | 122.25601 | 41039 ft | 419 kts | 233° |
| 2026-05-05 06:35 | 25.71645 | 122.20696 | 41042 ft | 419 kts | 233° |
| 2026-05-05 06:36 | 25.67841 | 122.15834 | 41039 ft | 419 kts | 233° |
| 2026-05-05 06:36 | 25.64005 | 122.10937 | 40997 ft | 419 kts | 233° |
| 2026-05-05 06:37 | 25.60188 | 122.06065 | 41045 ft | 422 kts | 233° |
| 2026-05-05 06:37 | 25.56345 | 122.01152 | 41035 ft | 421 kts | 233° |
| 2026-05-05 06:38 | 25.52499 | 121.96256 | 41029 ft | 420 kts | 233° |
| 2026-05-05 06:38 | 25.48665 | 121.91388 | 41021 ft | 421 kts | 233° |
| 2026-05-05 06:39 | 25.44807 | 121.86495 | 41029 ft | 421 kts | 233° |
| 2026-05-05 06:39 | 25.40981 | 121.81646 | 41024 ft | 421 kts | 233° |
| 2026-05-05 06:40 | 25.37109 | 121.76742 | 41018 ft | 422 kts | 233° |
| 2026-05-05 06:40 | 25.33266 | 121.71883 | 41015 ft | 422 kts | 233° |
| 2026-05-05 06:41 | 25.29403 | 121.67003 | 41002 ft | 421 kts | 233° |
| 2026-05-05 06:41 | 25.25533 | 121.62119 | 41002 ft | 422 kts | 233° |
| 2026-05-05 06:42 | 25.21687 | 121.57272 | 41003 ft | 421 kts | 233° |
| 2026-05-05 06:42 | 25.17808 | 121.52382 | 40997 ft | 423 kts | 233° |
| 2026-05-05 06:43 | 25.13972 | 121.47446 | 40991 ft | 423 kts | 234° |
| 2026-05-05 06:43 | 25.10188 | 121.42524 | 40998 ft | 423 kts | 234° |
| 2026-05-05 06:44 | 25.06375 | 121.37568 | 41005 ft | 423 kts | 234° |
| 2026-05-05 06:44 | 25.02577 | 121.32646 | 40976 ft | 423 kts | 234° |
| 2026-05-05 06:45 | 24.98734 | 121.27676 | 40994 ft | 426 kts | 234° |
| 2026-05-05 06:45 | 24.94900 | 121.22726 | 40993 ft | 427 kts | 234° |
| 2026-05-05 06:46 | 24.91038 | 121.17745 | 40997 ft | 426 kts | 233° |
| 2026-05-05 06:46 | 24.87181 | 121.12775 | 40999 ft | 426 kts | 233° |
| 2026-05-05 06:47 | 24.83352 | 121.07845 | 41011 ft | 426 kts | 233° |
| 2026-05-05 06:47 | 24.79491 | 121.02875 | 41016 ft | 427 kts | 233° |
| 2026-05-05 06:48 | 24.75646 | 120.97931 | 41024 ft | 426 kts | 233° |
| 2026-05-05 06:48 | 24.71805 | 120.92998 | 41014 ft | 425 kts | 233° |
| 2026-05-05 06:49 | 24.67943 | 120.88042 | 41014 ft | 425 kts | 233° |
| 2026-05-05 06:49 | 24.64101 | 120.83116 | 41016 ft | 426 kts | 233° |
| 2026-05-05 06:50 | 24.60226 | 120.78153 | 41011 ft | 426 kts | 233° |
| 2026-05-05 06:50 | 24.56373 | 120.73230 | 41015 ft | 428 kts | 233° |
| 2026-05-05 06:51 | 24.52301 | 120.68398 | 41020 ft | 430 kts | 231° |
| 2026-05-05 06:51 | 24.48124 | 120.63680 | 41019 ft | 430 kts | 230° |
| 2026-05-05 06:52 | 24.43956 | 120.58980 | 41026 ft | 431 kts | 230° |
| 2026-05-05 06:52 | 24.39811 | 120.54276 | 40990 ft | 430 kts | 231° |
| 2026-05-05 06:53 | 24.35640 | 120.49530 | 41015 ft | 431 kts | 231° |
| 2026-05-05 06:53 | 24.31497 | 120.44816 | 41017 ft | 431 kts | 230° |
| 2026-05-05 06:54 | 24.27319 | 120.40070 | 41021 ft | 432 kts | 230° |
| 2026-05-05 06:54 | 24.23164 | 120.35356 | 41007 ft | 431 kts | 230° |
| 2026-05-05 06:55 | 24.18982 | 120.30608 | 41011 ft | 432 kts | 230° |
| 2026-05-05 06:55 | 24.14819 | 120.25889 | 41004 ft | 433 kts | 230° |
| 2026-05-05 06:56 | 24.10621 | 120.21138 | 41005 ft | 433 kts | 230° |
| 2026-05-05 06:56 | 24.06432 | 120.16403 | 41000 ft | 434 kts | 230° |
| 2026-05-05 06:57 | 24.02231 | 120.11661 | 40996 ft | 433 kts | 230° |
| 2026-05-05 06:57 | 23.98057 | 120.06952 | 40998 ft | 433 kts | 230° |
| 2026-05-05 06:58 | 23.93847 | 120.02208 | 40993 ft | 434 kts | 230° |
| 2026-05-05 06:58 | 23.89659 | 119.97492 | 40998 ft | 435 kts | 230° |
| 2026-05-05 06:59 | 23.85413 | 119.92718 | 40993 ft | 436 kts | 230° |
| 2026-05-05 06:59 | 23.81206 | 119.87994 | 40990 ft | 436 kts | 230° |
| 2026-05-05 07:00 | 23.76989 | 119.83262 | 41007 ft | 437 kts | 230° |
| 2026-05-05 07:00 | 23.72736 | 119.78496 | 40966 ft | 435 kts | 230° |
| 2026-05-05 07:01 | 23.68525 | 119.73779 | 40989 ft | 436 kts | 230° |
| 2026-05-05 07:01 | 23.64275 | 119.69022 | 40989 ft | 437 kts | 230° |
| 2026-05-05 07:02 | 23.60131 | 119.64222 | 40995 ft | 434 kts | 235° |
| 2026-05-05 07:02 | 23.56688 | 119.58844 | 40989 ft | 431 kts | 240° |
| 2026-05-05 07:03 | 23.53465 | 119.53324 | 41000 ft | 431 kts | 241° |
| 2026-05-05 07:03 | 23.50315 | 119.47840 | 40990 ft | 431 kts | 241° |
| 2026-05-05 07:04 | 23.47130 | 119.42316 | 40992 ft | 433 kts | 241° |
| 2026-05-05 07:04 | 23.43922 | 119.36786 | 40986 ft | 433 kts | 241° |
| 2026-05-05 07:05 | 23.40686 | 119.31225 | 40992 ft | 433 kts | 241° |
| 2026-05-05 07:05 | 23.38043 | 119.26689 | 40985 ft | 433 kts | 241° |
| 2026-05-05 07:06 | 23.34264 | 119.20206 | 40992 ft | 433 kts | 241° |
| 2026-05-05 07:06 | 23.31036 | 119.14676 | 40992 ft | 433 kts | 241° |
| 2026-05-05 07:07 | 23.28360 | 119.10094 | 41000 ft | 434 kts | 241° |
| 2026-05-05 07:07 | 23.25107 | 119.04530 | 40998 ft | 435 kts | 241° |
| 2026-05-05 07:08 | 23.21858 | 118.98979 | 40997 ft | 435 kts | 241° |
| 2026-05-05 07:08 | 23.18615 | 118.93445 | 40999 ft | 435 kts | 241° |
| 2026-05-05 07:09 | 23.15359 | 118.87896 | 41001 ft | 435 kts | 241° |
| 2026-05-05 07:09 | 23.12104 | 118.82354 | 40999 ft | 435 kts | 241° |
| 2026-05-05 07:10 | 23.08857 | 118.76830 | 40990 ft | 435 kts | 240° |
| 2026-05-05 07:10 | 23.05585 | 118.71270 | 41004 ft | 437 kts | 240° |
| 2026-05-05 07:11 | 23.02319 | 118.65728 | 41019 ft | 437 kts | 240° |
| 2026-05-05 07:11 | 22.99029 | 118.60150 | 41002 ft | 437 kts | 241° |
| 2026-05-05 07:12 | 22.95766 | 118.54625 | 40994 ft | 437 kts | 240° |
| 2026-05-05 07:12 | 22.92466 | 118.49064 | 41000 ft | 437 kts | 240° |
| 2026-05-05 07:13 | 22.89169 | 118.43524 | 40998 ft | 438 kts | 240° |
| 2026-05-05 07:13 | 22.85860 | 118.37972 | 40991 ft | 438 kts | 240° |
| 2026-05-05 07:14 | 22.82541 | 118.32405 | 40998 ft | 440 kts | 240° |
| 2026-05-05 07:14 | 22.79232 | 118.26861 | 40990 ft | 440 kts | 240° |
| 2026-05-05 07:15 | 22.75899 | 118.21285 | 40991 ft | 440 kts | 240° |
| 2026-05-05 07:15 | 22.72558 | 118.15700 | 40996 ft | 440 kts | 240° |
| 2026-05-05 07:16 | 22.69243 | 118.10164 | 40996 ft | 440 kts | 240° |
| 2026-05-05 07:16 | 22.65898 | 118.04583 | 41000 ft | 440 kts | 240° |
| 2026-05-05 07:17 | 22.62578 | 117.99051 | 40990 ft | 440 kts | 240° |
| 2026-05-05 07:17 | 22.59256 | 117.93509 | 40994 ft | 440 kts | 241° |
| 2026-05-05 07:18 | 22.55945 | 117.87936 | 40985 ft | 440 kts | 241° |
| 2026-05-05 07:18 | 22.52634 | 117.82358 | 40997 ft | 440 kts | 241° |